sensor_id;sensor_type;location;lat;lon;timestamp;temperature;humidity
66576;SHT31;53428;47.686;16.584;2023-06-14T00:02:06;13.56;80.39
66576;SHT31;53428;47.686;16.584;2023-06-14T00:07:07;13.49;81.54
66576;SHT31;53428;47.686;16.584;2023-06-14T00:12:08;13.35;82.24
66576;SHT31;53428;47.686;16.584;2023-06-14T00:17:07;13.23;82.87
66576;SHT31;53428;47.686;16.584;2023-06-14T00:22:07;13.00;83.28
66576;SHT31;53428;47.686;16.584;2023-06-14T00:27:07;13.11;82.87
66576;SHT31;53428;47.686;16.584;2023-06-14T00:32:06;13.19;82.69
66576;SHT31;53428;47.686;16.584;2023-06-14T00:37:06;13.26;82.91
66576;SHT31;53428;47.686;16.584;2023-06-14T00:42:06;13.34;82.67
66576;SHT31;53428;47.686;16.584;2023-06-14T00:47:05;13.58;81.43
66576;SHT31;53428;47.686;16.584;2023-06-14T00:52:04;13.81;80.80
66576;SHT31;53428;47.686;16.584;2023-06-14T00:57:05;13.90;80.99
66576;SHT31;53428;47.686;16.584;2023-06-14T01:02:05;14.04;79.69
66576;SHT31;53428;47.686;16.584;2023-06-14T01:07:15;14.15;79.20
66576;SHT31;53428;47.686;16.584;2023-06-14T01:12:31;14.29;79.57
66576;SHT31;53428;47.686;16.584;2023-06-14T01:17:34;14.31;79.96
66576;SHT31;53428;47.686;16.584;2023-06-14T01:22:33;14.04;80.37
66576;SHT31;53428;47.686;16.584;2023-06-14T01:27:33;14.32;78.83
66576;SHT31;53428;47.686;16.584;2023-06-14T01:32:32;14.14;81.32
66576;SHT31;53428;47.686;16.584;2023-06-14T01:37:31;13.53;87.17
66576;SHT31;53428;47.686;16.584;2023-06-14T01:42:33;12.95;89.46
66576;SHT31;53428;47.686;16.584;2023-06-14T01:47:33;12.71;93.04
66576;SHT31;53428;47.686;16.584;2023-06-14T01:52:33;12.67;92.69
66576;SHT31;53428;47.686;16.584;2023-06-14T01:57:33;12.64;93.17
66576;SHT31;53428;47.686;16.584;2023-06-14T02:02:32;12.79;93.28
66576;SHT31;53428;47.686;16.584;2023-06-14T02:07:31;12.87;92.84
66576;SHT31;53428;47.686;16.584;2023-06-14T02:12:30;12.92;91.47
66576;SHT31;53428;47.686;16.584;2023-06-14T02:17:30;12.87;93.06
66576;SHT31;53428;47.686;16.584;2023-06-14T02:22:29;12.70;96.07
66576;SHT31;53428;47.686;16.584;2023-06-14T02:27:28;12.46;95.44
66576;SHT31;53428;47.686;16.584;2023-06-14T02:32:28;12.40;96.82
66576;SHT31;53428;47.686;16.584;2023-06-14T02:37:27;12.39;96.15
66576;SHT31;53428;47.686;16.584;2023-06-14T02:42:27;12.39;95.73
66576;SHT31;53428;47.686;16.584;2023-06-14T02:47:26;12.39;95.04
66576;SHT31;53428;47.686;16.584;2023-06-14T02:52:25;13.00;89.59
66576;SHT31;53428;47.686;16.584;2023-06-14T02:57:25;12.81;92.37
66576;SHT31;53428;47.686;16.584;2023-06-14T03:02:24;12.74;94.56
66576;SHT31;53428;47.686;16.584;2023-06-14T03:07:24;12.68;95.42
66576;SHT31;53428;47.686;16.584;2023-06-14T03:12:24;12.80;96.19
66576;SHT31;53428;47.686;16.584;2023-06-14T03:17:23;12.81;94.53
66576;SHT31;53428;47.686;16.584;2023-06-14T03:22:23;12.84;95.71
66576;SHT31;53428;47.686;16.584;2023-06-14T03:27:24;12.95;96.33
66576;SHT31;53428;47.686;16.584;2023-06-14T03:32:24;13.02;96.66
66576;SHT31;53428;47.686;16.584;2023-06-14T03:37:24;13.08;96.00
66576;SHT31;53428;47.686;16.584;2023-06-14T03:42:23;13.05;97.83
66576;SHT31;53428;47.686;16.584;2023-06-14T03:47:22;13.12;97.41
66576;SHT31;53428;47.686;16.584;2023-06-14T03:52:22;13.16;96.46
66576;SHT31;53428;47.686;16.584;2023-06-14T03:57:23;13.15;97.34
66576;SHT31;53428;47.686;16.584;2023-06-14T04:02:22;13.14;97.66
66576;SHT31;53428;47.686;16.584;2023-06-14T04:07:21;13.08;98.44
66576;SHT31;53428;47.686;16.584;2023-06-14T04:12:22;13.01;99.13
66576;SHT31;53428;47.686;16.584;2023-06-14T04:17:21;13.05;99.99
66576;SHT31;53428;47.686;16.584;2023-06-14T04:22:21;12.88;99.99
66576;SHT31;53428;47.686;16.584;2023-06-14T04:27:20;12.81;99.88
66576;SHT31;53428;47.686;16.584;2023-06-14T04:32:20;12.60;99.78
66576;SHT31;53428;47.686;16.584;2023-06-14T04:37:21;12.60;99.99
66576;SHT31;53428;47.686;16.584;2023-06-14T04:42:20;12.63;99.99
66576;SHT31;53428;47.686;16.584;2023-06-14T04:47:19;12.67;99.81
66576;SHT31;53428;47.686;16.584;2023-06-14T04:52:20;12.70;99.99
66576;SHT31;53428;47.686;16.584;2023-06-14T04:57:19;12.68;99.99
66576;SHT31;53428;47.686;16.584;2023-06-14T05:02:24;12.64;99.99
66576;SHT31;53428;47.686;16.584;2023-06-14T05:07:24;12.65;99.99
66576;SHT31;53428;47.686;16.584;2023-06-14T05:12:24;12.61;99.99
66576;SHT31;53428;47.686;16.584;2023-06-14T05:17:23;12.70;99.99
66576;SHT31;53428;47.686;16.584;2023-06-14T05:22:22;12.74;99.99
66576;SHT31;53428;47.686;16.584;2023-06-14T05:27:21;12.79;99.99
66576;SHT31;53428;47.686;16.584;2023-06-14T05:32:21;12.73;99.99
66576;SHT31;53428;47.686;16.584;2023-06-14T05:37:20;12.88;99.99
66576;SHT31;53428;47.686;16.584;2023-06-14T05:42:20;12.91;99.99
66576;SHT31;53428;47.686;16.584;2023-06-14T05:47:19;13.00;99.99
66576;SHT31;53428;47.686;16.584;2023-06-14T05:52:18;13.00;99.99
66576;SHT31;53428;47.686;16.584;2023-06-14T05:57:18;13.02;98.88
66576;SHT31;53428;47.686;16.584;2023-06-14T06:02:17;13.02;98.48
66576;SHT31;53428;47.686;16.584;2023-06-14T06:07:16;13.11;97.47
66576;SHT31;53428;47.686;16.584;2023-06-14T06:12:16;13.15;96.82
66576;SHT31;53428;47.686;16.584;2023-06-14T06:17:15;13.16;99.36
66576;SHT31;53428;47.686;16.584;2023-06-14T06:22:14;13.36;99.05
66576;SHT31;53428;47.686;16.584;2023-06-14T06:27:13;13.66;98.24
66576;SHT31;53428;47.686;16.584;2023-06-14T06:32:13;13.88;95.79
66576;SHT31;53428;47.686;16.584;2023-06-14T06:37:13;13.71;99.15
66576;SHT31;53428;47.686;16.584;2023-06-14T06:42:12;13.88;98.00
66576;SHT31;53428;47.686;16.584;2023-06-14T06:47:11;14.34;96.11
66576;SHT31;53428;47.686;16.584;2023-06-14T06:52:11;14.21;95.18
66576;SHT31;53428;47.686;16.584;2023-06-14T06:57:10;14.31;95.88
66576;SHT31;53428;47.686;16.584;2023-06-14T07:02:10;14.58;94.33
66576;SHT31;53428;47.686;16.584;2023-06-14T07:07:09;14.92;95.46
66576;SHT31;53428;47.686;16.584;2023-06-14T07:12:09;14.94;93.33
66576;SHT31;53428;47.686;16.584;2023-06-14T07:17:08;15.34;92.29
66576;SHT31;53428;47.686;16.584;2023-06-14T07:22:07;15.40;91.69
66576;SHT31;53428;47.686;16.584;2023-06-14T07:27:07;15.55;92.17
66576;SHT31;53428;47.686;16.584;2023-06-14T07:32:07;15.52;91.07
66576;SHT31;53428;47.686;16.584;2023-06-14T07:37:06;15.62;90.41
66576;SHT31;53428;47.686;16.584;2023-06-14T07:42:05;16.09;89.32
66576;SHT31;53428;47.686;16.584;2023-06-14T07:47:05;16.57;87.54
66576;SHT31;53428;47.686;16.584;2023-06-14T07:52:05;16.61;87.82
66576;SHT31;53428;47.686;16.584;2023-06-14T07:57:05;16.61;88.14
66576;SHT31;53428;47.686;16.584;2023-06-14T08:02:05;16.88;86.84
66576;SHT31;53428;47.686;16.584;2023-06-14T08:07:05;16.86;88.24
66576;SHT31;53428;47.686;16.584;2023-06-14T08:12:07;16.67;89.03
66576;SHT31;53428;47.686;16.584;2023-06-14T08:17:09;16.79;88.66
66576;SHT31;53428;47.686;16.584;2023-06-14T08:22:08;16.50;89.29
66576;SHT31;53428;47.686;16.584;2023-06-14T08:27:11;16.74;88.32
66576;SHT31;53428;47.686;16.584;2023-06-14T08:32:10;16.47;88.23
66576;SHT31;53428;47.686;16.584;2023-06-14T08:37:10;16.44;88.69
66576;SHT31;53428;47.686;16.584;2023-06-14T08:42:10;16.37;85.10
66576;SHT31;53428;47.686;16.584;2023-06-14T08:47:10;16.30;85.50
66576;SHT31;53428;47.686;16.584;2023-06-14T08:52:10;16.63;85.87
66576;SHT31;53428;47.686;16.584;2023-06-14T08:57:12;17.34;81.12
66576;SHT31;53428;47.686;16.584;2023-06-14T09:02:14;17.85;79.78
66576;SHT31;53428;47.686;16.584;2023-06-14T09:07:13;17.84;79.63
66576;SHT31;53428;47.686;16.584;2023-06-14T09:12:13;17.53;79.73
66576;SHT31;53428;47.686;16.584;2023-06-14T09:17:13;17.33;81.18
66576;SHT31;53428;47.686;16.584;2023-06-14T09:22:16;17.13;82.78
66576;SHT31;53428;47.686;16.584;2023-06-14T09:27:16;16.99;84.07
66576;SHT31;53428;47.686;16.584;2023-06-14T09:32:15;17.15;83.73
66576;SHT31;53428;47.686;16.584;2023-06-14T09:37:31;17.57;81.28
66576;SHT31;53428;47.686;16.584;2023-06-14T09:42:30;17.92;79.76
66576;SHT31;53428;47.686;16.584;2023-06-14T09:47:30;18.33;76.35
66576;SHT31;53428;47.686;16.584;2023-06-14T09:52:30;17.47;78.24
66576;SHT31;53428;47.686;16.584;2023-06-14T09:57:30;19.10;71.83
66576;SHT31;53428;47.686;16.584;2023-06-14T10:02:36;19.67;71.91
66576;SHT31;53428;47.686;16.584;2023-06-14T10:07:44;19.72;71.92
66576;SHT31;53428;47.686;16.584;2023-06-14T10:12:47;19.60;72.36
66576;SHT31;53428;47.686;16.584;2023-06-14T10:17:52;19.67;71.44
66576;SHT31;53428;47.686;16.584;2023-06-14T10:23:06;19.59;73.51
66576;SHT31;53428;47.686;16.584;2023-06-14T10:28:17;18.60;75.80
66576;SHT31;53428;47.686;16.584;2023-06-14T10:33:17;20.29;71.92
66576;SHT31;53428;47.686;16.584;2023-06-14T10:38:30;20.24;71.29
66576;SHT31;53428;47.686;16.584;2023-06-14T10:43:31;19.16;75.03
66576;SHT31;53428;47.686;16.584;2023-06-14T10:48:30;19.70;72.45
66576;SHT31;53428;47.686;16.584;2023-06-14T10:53:40;19.29;72.59
66576;SHT31;53428;47.686;16.584;2023-06-14T10:58:39;20.00;68.47
66576;SHT31;53428;47.686;16.584;2023-06-14T11:03:51;20.00;70.35
66576;SHT31;53428;47.686;16.584;2023-06-14T11:09:32;19.39;72.22
66576;SHT31;53428;47.686;16.584;2023-06-14T11:14:40;19.55;72.16
66576;SHT31;53428;47.686;16.584;2023-06-14T11:19:39;20.10;71.08
66576;SHT31;53428;47.686;16.584;2023-06-14T11:24:39;20.53;67.78
66576;SHT31;53428;47.686;16.584;2023-06-14T11:29:38;20.65;68.13
66576;SHT31;53428;47.686;16.584;2023-06-14T11:34:37;20.77;68.18
66576;SHT31;53428;47.686;16.584;2023-06-14T11:39:43;20.83;69.77
66576;SHT31;53428;47.686;16.584;2023-06-14T11:44:45;20.01;71.20
66576;SHT31;53428;47.686;16.584;2023-06-14T11:49:46;20.55;69.94
66576;SHT31;53428;47.686;16.584;2023-06-14T11:54:47;20.68;69.66
66576;SHT31;53428;47.686;16.584;2023-06-14T11:59:48;20.97;67.33
66576;SHT31;53428;47.686;16.584;2023-06-14T12:04:48;21.71;65.58
66576;SHT31;53428;47.686;16.584;2023-06-14T12:14:55;24.08;58.50
66576;SHT31;53428;47.686;16.584;2023-06-14T12:19:55;24.62;58.24
66576;SHT31;53428;47.686;16.584;2023-06-14T12:24:54;24.33;56.43
66576;SHT31;53428;47.686;16.584;2023-06-14T12:30:01;24.25;57.13
66576;SHT31;53428;47.686;16.584;2023-06-14T12:35:01;23.35;59.41
66576;SHT31;53428;47.686;16.584;2023-06-14T12:40:01;22.94;56.97
66576;SHT31;53428;47.686;16.584;2023-06-14T12:45:05;23.80;56.52
66576;SHT31;53428;47.686;16.584;2023-06-14T12:50:05;25.08;54.43
66576;SHT31;53428;47.686;16.584;2023-06-14T12:55:05;26.91;50.55
66576;SHT31;53428;47.686;16.584;2023-06-14T13:00:05;26.92;52.42
66576;SHT31;53428;47.686;16.584;2023-06-14T13:05:06;24.73;56.18
66576;SHT31;53428;47.686;16.584;2023-06-14T13:10:06;25.94;54.32
66576;SHT31;53428;47.686;16.584;2023-06-14T13:15:06;24.56;57.65
66576;SHT31;53428;47.686;16.584;2023-06-14T13:20:07;24.93;55.81
66576;SHT31;53428;47.686;16.584;2023-06-14T13:25:07;27.33;52.22
66576;SHT31;53428;47.686;16.584;2023-06-14T13:30:07;25.02;58.67
66576;SHT31;53428;47.686;16.584;2023-06-14T13:35:08;24.33;58.05
66576;SHT31;53428;47.686;16.584;2023-06-14T13:40:08;25.17;54.76
66576;SHT31;53428;47.686;16.584;2023-06-14T13:45:08;24.33;57.41
66576;SHT31;53428;47.686;16.584;2023-06-14T13:50:08;23.52;58.07
66576;SHT31;53428;47.686;16.584;2023-06-14T13:55:07;22.48;59.90
66576;SHT31;53428;47.686;16.584;2023-06-14T14:00:07;22.36;62.14
66576;SHT31;53428;47.686;16.584;2023-06-14T14:05:08;22.44;63.18
66576;SHT31;53428;47.686;16.584;2023-06-14T14:10:08;22.16;62.74
66576;SHT31;53428;47.686;16.584;2023-06-14T14:15:07;21.99;62.55
66576;SHT31;53428;47.686;16.584;2023-06-14T14:20:11;21.77;63.00
66576;SHT31;53428;47.686;16.584;2023-06-14T14:25:14;22.26;62.59
66576;SHT31;53428;47.686;16.584;2023-06-14T14:30:15;22.14;63.37
66576;SHT31;53428;47.686;16.584;2023-06-14T14:35:16;23.43;60.03
66576;SHT31;53428;47.686;16.584;2023-06-14T14:40:16;23.57;60.11
66576;SHT31;53428;47.686;16.584;2023-06-14T14:45:15;25.82;55.43
66576;SHT31;53428;47.686;16.584;2023-06-14T14:50:14;25.55;55.62
66576;SHT31;53428;47.686;16.584;2023-06-14T14:55:15;28.42;50.67
66576;SHT31;53428;47.686;16.584;2023-06-14T15:00:15;25.28;56.14
66576;SHT31;53428;47.686;16.584;2023-06-14T15:05:15;24.94;56.01
66576;SHT31;53428;47.686;16.584;2023-06-14T15:10:14;24.79;56.95
66576;SHT31;53428;47.686;16.584;2023-06-14T15:15:13;23.16;59.84
66576;SHT31;53428;47.686;16.584;2023-06-14T15:20:13;23.93;57.48
66576;SHT31;53428;47.686;16.584;2023-06-14T15:25:12;23.93;58.99
66576;SHT31;53428;47.686;16.584;2023-06-14T15:30:12;25.88;54.84
66576;SHT31;53428;47.686;16.584;2023-06-14T15:35:11;27.65;49.87
66576;SHT31;53428;47.686;16.584;2023-06-14T15:40:11;26.27;52.63
66576;SHT31;53428;47.686;16.584;2023-06-14T15:45:11;24.75;54.45
66576;SHT31;53428;47.686;16.584;2023-06-14T15:50:10;24.72;56.49
66576;SHT31;53428;47.686;16.584;2023-06-14T15:55:09;26.99;52.95
66576;SHT31;53428;47.686;16.584;2023-06-14T16:00:09;26.84;51.78
66576;SHT31;53428;47.686;16.584;2023-06-14T16:05:09;24.76;55.38
66576;SHT31;53428;47.686;16.584;2023-06-14T16:10:08;25.35;55.44
66576;SHT31;53428;47.686;16.584;2023-06-14T16:15:08;28.25;49.69
66576;SHT31;53428;47.686;16.584;2023-06-14T16:20:08;28.42;48.49
66576;SHT31;53428;47.686;16.584;2023-06-14T16:25:07;29.08;47.52
66576;SHT31;53428;47.686;16.584;2023-06-14T16:30:07;29.83;45.84
66576;SHT31;53428;47.686;16.584;2023-06-14T16:35:07;29.46;46.55
66576;SHT31;53428;47.686;16.584;2023-06-14T16:40:06;28.98;46.87
66576;SHT31;53428;47.686;16.584;2023-06-14T16:45:06;26.64;50.83
66576;SHT31;53428;47.686;16.584;2023-06-14T16:50:06;28.33;48.63
66576;SHT31;53428;47.686;16.584;2023-06-14T16:55:06;28.63;47.50
66576;SHT31;53428;47.686;16.584;2023-06-14T17:00:06;27.63;49.52
66576;SHT31;53428;47.686;16.584;2023-06-14T17:05:06;27.54;50.21
66576;SHT31;53428;47.686;16.584;2023-06-14T17:10:06;28.12;48.52
66576;SHT31;53428;47.686;16.584;2023-06-14T17:15:05;27.37;51.00
66576;SHT31;53428;47.686;16.584;2023-06-14T17:20:06;27.82;49.53
66576;SHT31;53428;47.686;16.584;2023-06-14T17:25:06;25.59;53.50
66576;SHT31;53428;47.686;16.584;2023-06-14T17:30:05;25.55;53.75
66576;SHT31;53428;47.686;16.584;2023-06-14T17:35:05;24.96;55.36
66576;SHT31;53428;47.686;16.584;2023-06-14T17:40:06;25.68;54.13
66576;SHT31;53428;47.686;16.584;2023-06-14T17:45:05;23.29;60.82
66576;SHT31;53428;47.686;16.584;2023-06-14T17:50:05;21.74;64.47
66576;SHT31;53428;47.686;16.584;2023-06-14T17:55:06;20.90;67.86
66576;SHT31;53428;47.686;16.584;2023-06-14T18:00:06;20.61;69.06
66576;SHT31;53428;47.686;16.584;2023-06-14T18:05:05;20.20;70.30
66576;SHT31;53428;47.686;16.584;2023-06-14T18:10:05;19.96;71.08
66576;SHT31;53428;47.686;16.584;2023-06-14T18:15:05;19.76;71.94
66576;SHT31;53428;47.686;16.584;2023-06-14T18:20:05;19.42;74.04
66576;SHT31;53428;47.686;16.584;2023-06-14T18:25:04;19.12;75.44
66576;SHT31;53428;47.686;16.584;2023-06-14T18:30:04;18.81;76.91
66576;SHT31;53428;47.686;16.584;2023-06-14T18:35:04;18.64;78.14
66576;SHT31;53428;47.686;16.584;2023-06-14T18:40:04;18.36;79.35
66576;SHT31;53428;47.686;16.584;2023-06-14T18:45:04;18.08;79.35
66576;SHT31;53428;47.686;16.584;2023-06-14T18:50:04;18.01;79.88
66576;SHT31;53428;47.686;16.584;2023-06-14T18:55:04;17.98;81.28
66576;SHT31;53428;47.686;16.584;2023-06-14T19:00:03;17.66;81.92
66576;SHT31;53428;47.686;16.584;2023-06-14T19:05:04;17.32;82.72
66576;SHT31;53428;47.686;16.584;2023-06-14T19:10:04;17.02;83.69
66576;SHT31;53428;47.686;16.584;2023-06-14T19:15:03;16.85;83.60
66576;SHT31;53428;47.686;16.584;2023-06-14T19:20:04;16.71;84.06
66576;SHT31;53428;47.686;16.584;2023-06-14T19:25:03;16.63;84.13
66576;SHT31;53428;47.686;16.584;2023-06-14T19:30:03;16.54;84.32
66576;SHT31;53428;47.686;16.584;2023-06-14T19:35:03;16.50;84.59
66576;SHT31;53428;47.686;16.584;2023-06-14T19:40:03;16.34;86.18
66576;SHT31;53428;47.686;16.584;2023-06-14T19:45:03;16.00;88.86
66576;SHT31;53428;47.686;16.584;2023-06-14T19:50:02;15.79;89.52
66576;SHT31;53428;47.686;16.584;2023-06-14T19:55:05;15.72;90.99
66576;SHT31;53428;47.686;16.584;2023-06-14T20:00:05;15.61;91.75
66576;SHT31;53428;47.686;16.584;2023-06-14T20:05:05;15.41;92.37
66576;SHT31;53428;47.686;16.584;2023-06-14T20:10:06;15.32;92.59
66576;SHT31;53428;47.686;16.584;2023-06-14T20:15:06;15.11;92.81
66576;SHT31;53428;47.686;16.584;2023-06-14T20:20:05;15.03;93.14
66576;SHT31;53428;47.686;16.584;2023-06-14T20:25:06;14.93;93.38
66576;SHT31;53428;47.686;16.584;2023-06-14T20:30:06;14.94;92.88
66576;SHT31;53428;47.686;16.584;2023-06-14T20:35:06;14.90;93.24
66576;SHT31;53428;47.686;16.584;2023-06-14T20:40:08;14.65;93.76
66576;SHT31;53428;47.686;16.584;2023-06-14T20:45:17;14.48;94.25
66576;SHT31;53428;47.686;16.584;2023-06-14T20:50:16;14.42;94.20
66576;SHT31;53428;47.686;16.584;2023-06-14T20:55:17;14.34;94.86
66576;SHT31;53428;47.686;16.584;2023-06-14T21:00:17;14.21;95.42
66576;SHT31;53428;47.686;16.584;2023-06-14T21:05:16;14.08;95.92
66576;SHT31;53428;47.686;16.584;2023-06-14T21:10:15;13.94;96.43
66576;SHT31;53428;47.686;16.584;2023-06-14T21:15:15;13.87;96.61
66576;SHT31;53428;47.686;16.584;2023-06-14T21:20:14;13.91;96.49
66576;SHT31;53428;47.686;16.584;2023-06-14T21:25:14;13.79;96.71
66576;SHT31;53428;47.686;16.584;2023-06-14T21:30:15;13.76;96.64
66576;SHT31;53428;47.686;16.584;2023-06-14T21:35:17;13.71;96.65
66576;SHT31;53428;47.686;16.584;2023-06-14T21:40:18;13.60;96.69
66576;SHT31;53428;47.686;16.584;2023-06-14T21:45:17;13.58;96.91
66576;SHT31;53428;47.686;16.584;2023-06-14T21:50:17;13.45;97.10
66576;SHT31;53428;47.686;16.584;2023-06-14T21:55:16;13.49;96.44
66576;SHT31;53428;47.686;16.584;2023-06-14T22:00:19;13.43;96.33
66576;SHT31;53428;47.686;16.584;2023-06-14T22:05:22;13.45;95.77
66576;SHT31;53428;47.686;16.584;2023-06-14T22:10:22;13.36;95.95
66576;SHT31;53428;47.686;16.584;2023-06-14T22:15:21;13.26;96.37
66576;SHT31;53428;47.686;16.584;2023-06-14T22:20:21;13.11;96.54
66576;SHT31;53428;47.686;16.584;2023-06-14T22:25:21;13.00;96.90
66576;SHT31;53428;47.686;16.584;2023-06-14T22:30:20;12.95;97.25
66576;SHT31;53428;47.686;16.584;2023-06-14T22:35:20;12.92;97.29
66576;SHT31;53428;47.686;16.584;2023-06-14T22:40:19;12.80;97.56
66576;SHT31;53428;47.686;16.584;2023-06-14T22:45:19;12.90;97.32
66576;SHT31;53428;47.686;16.584;2023-06-14T22:50:21;12.92;96.88
66576;SHT31;53428;47.686;16.584;2023-06-14T22:55:21;12.95;96.25
66576;SHT31;53428;47.686;16.584;2023-06-14T23:00:25;12.84;96.48
66576;SHT31;53428;47.686;16.584;2023-06-14T23:05:25;12.81;96.17
66576;SHT31;53428;47.686;16.584;2023-06-14T23:10:24;12.80;95.98
66576;SHT31;53428;47.686;16.584;2023-06-14T23:15:23;12.79;95.68
66576;SHT31;53428;47.686;16.584;2023-06-14T23:20:24;12.73;96.00
66576;SHT31;53428;47.686;16.584;2023-06-14T23:25:23;12.73;95.94
66576;SHT31;53428;47.686;16.584;2023-06-14T23:30:24;12.71;95.59
66576;SHT31;53428;47.686;16.584;2023-06-14T23:35:25;12.61;95.89
66576;SHT31;53428;47.686;16.584;2023-06-14T23:40:26;12.50;96.15
66576;SHT31;53428;47.686;16.584;2023-06-14T23:45:27;12.42;96.20
66576;SHT31;53428;47.686;16.584;2023-06-14T23:50:28;12.28;96.82
66576;SHT31;53428;47.686;16.584;2023-06-14T23:55:28;12.15;97.08
